createdAt,value
2023-05-02T00:01:20.820Z,94280.03
2023-05-02T00:03:47.699Z,94279.09
2023-05-02T00:06:14.677Z,94277.84
2023-05-02T00:08:41.635Z,94285.09
2023-05-02T00:11:08.429Z,94281.97
2023-05-02T00:13:35.084Z,94278.03
2023-05-02T00:16:02.132Z,94279.44
2023-05-02T00:18:28.796Z,94273.94
2023-05-02T00:20:56.792Z,94270.00
2023-05-02T00:23:24.150Z,94279.28
2023-05-02T00:25:51.011Z,94276.78
2023-05-02T00:28:18.296Z,94279.44
2023-05-02T00:30:46.400Z,94281.34
2023-05-02T00:33:14.836Z,94279.28
2023-05-02T00:35:42.278Z,94278.34
2023-05-02T00:38:09.280Z,94287.00
2023-05-02T00:40:52.983Z,94284.00
2023-05-02T00:43:20.117Z,94263.13
2023-05-02T00:45:47.397Z,94281.19
2023-05-02T00:48:14.884Z,94279.47
2023-05-02T00:50:43.508Z,94275.22
2023-05-02T00:53:11.109Z,94276.63
2023-05-02T00:55:38.658Z,94271.28
2023-05-02T00:58:11.015Z,94278.53
2023-05-02T01:01:05.292Z,94273.16
2023-05-02T01:03:39.963Z,94277.28
2023-05-02T01:06:33.900Z,94269.28
2023-05-02T01:09:19.392Z,94275.56
2023-05-02T01:11:53.634Z,94280.78
2023-05-02T01:14:22.259Z,94282.03
2023-05-02T01:16:50.242Z,94283.31
2023-05-02T01:19:26.996Z,94279.53
2023-05-02T01:21:55.248Z,94282.03
2023-05-02T01:24:40.443Z,94287.38
2023-05-02T01:27:37.001Z,94289.09
2023-05-02T01:30:06.727Z,94288.31
2023-05-02T01:32:37.342Z,94291.63
2023-05-02T01:35:06.605Z,94295.09
2023-05-02T01:37:34.453Z,94292.72
2023-05-02T01:40:03.860Z,94291.94
2023-05-02T01:42:32.677Z,94290.56
2023-05-02T01:45:02.989Z,94294.16
2023-05-02T01:47:33.434Z,94289.13
2023-05-02T01:50:01.960Z,94301.06
2023-05-02T01:52:30.466Z,94297.63
2023-05-02T01:55:00.147Z,94303.00
2023-05-02T01:57:27.586Z,94306.59
2023-05-02T01:59:57.245Z,94302.97
2023-05-02T02:02:29.837Z,94307.38
2023-05-02T02:04:57.824Z,94303.75
2023-05-02T02:07:24.558Z,94299.34
2023-05-02T02:09:52.962Z,94299.19
2023-05-02T02:12:27.301Z,94301.06
2023-05-02T02:15:03.263Z,94310.53
2023-05-02T02:17:39.905Z,94308.47
2023-05-02T02:20:10.262Z,94312.56
2023-05-02T02:22:39.481Z,94313.97
2023-05-02T02:25:09.654Z,94317.75
2023-05-02T02:27:38.006Z,94325.13
2023-05-02T02:30:06.037Z,94331.25
2023-05-02T02:32:32.692Z,94324.19
2023-05-02T02:35:01.008Z,94321.84
2023-05-02T02:38:16.838Z,94323.88
2023-05-02T02:40:56.207Z,94328.28
2023-05-02T02:43:38.082Z,94329.84
2023-05-02T02:46:10.739Z,94330.31
2023-05-02T02:48:50.746Z,94335.19
2023-05-02T02:51:32.062Z,94319.47
2023-05-02T02:54:33.722Z,94332.22
2023-05-02T02:57:16.150Z,94330.94
2023-05-02T02:59:51.524Z,94336.91
2023-05-02T03:02:20.158Z,94335.66
2023-05-02T03:04:47.436Z,94348.38
2023-05-02T03:07:14.345Z,94341.00
2023-05-02T03:09:45.884Z,94349.00
2023-05-02T03:12:17.359Z,94352.16
2023-05-02T03:14:44.987Z,94346.66
2023-05-02T03:17:11.843Z,94351.19
2023-05-02T03:19:38.894Z,94349.31
2023-05-02T03:22:06.145Z,94343.66
2023-05-02T03:24:34.815Z,94347.44
2023-05-02T03:27:03.044Z,94351.38
2023-05-02T03:29:35.280Z,94349.31
2023-05-02T03:32:02.548Z,94349.63
2023-05-02T03:34:29.487Z,94355.28
2023-05-02T03:36:57.329Z,94354.63
2023-05-02T03:39:24.223Z,94355.25
2023-05-02T03:41:51.108Z,94362.78
2023-05-02T03:44:21.309Z,94367.63
2023-05-02T03:46:48.524Z,94370.47
2023-05-02T03:49:15.371Z,94376.13
2023-05-02T03:51:44.899Z,94377.03
2023-05-02T03:54:13.133Z,94383.31
2023-05-02T03:56:42.947Z,94387.56
2023-05-02T03:59:24.325Z,94387.69
2023-05-02T04:01:52.300Z,94393.03
2023-05-02T04:04:24.248Z,94395.38
2023-05-02T04:06:53.424Z,94397.41
2023-05-02T04:09:25.093Z,94404.94
2023-05-02T04:11:56.582Z,94396.75
2023-05-02T04:14:23.369Z,94407.94
2023-05-02T04:16:52.629Z,94409.81
2023-05-02T04:19:27.506Z,94416.91
2023-05-02T04:21:54.019Z,94423.78
2023-05-02T04:24:20.591Z,94415.16
2023-05-02T04:26:48.749Z,94425.22
2023-05-02T04:29:15.417Z,94429.84
2023-05-02T04:31:42.675Z,94432.81
2023-05-02T04:34:10.650Z,94438.53
2023-05-02T04:36:45.507Z,94436.19
2023-05-02T04:39:15.005Z,94442.03
2023-05-02T04:41:48.273Z,94447.69
2023-05-02T04:44:15.580Z,94449.25
2023-05-02T04:46:43.498Z,94452.88
2023-05-02T04:49:10.376Z,94452.88
2023-05-02T04:51:36.894Z,94451.19
2023-05-02T04:54:03.738Z,94460.63
2023-05-02T04:56:30.588Z,94461.59
2023-05-02T04:58:57.163Z,94463.00
2023-05-02T05:01:24.931Z,94459.41
2023-05-02T05:03:51.872Z,94466.66
2023-05-02T05:06:19.408Z,94466.19
2023-05-02T05:08:46.770Z,94465.47
2023-05-02T05:11:15.973Z,94461.25
2023-05-02T05:13:42.766Z,94463.75
2023-05-02T05:16:12.169Z,94468.94
2023-05-02T05:18:42.363Z,94468.78
2023-05-02T05:21:11.513Z,94479.81
2023-05-02T05:23:39.177Z,94483.09
2023-05-02T05:26:13.411Z,94483.28
2023-05-02T05:28:43.250Z,94490.38
2023-05-02T05:31:12.693Z,94486.44
2023-05-02T05:33:40.742Z,94488.78
2023-05-02T05:36:10.235Z,94490.38
2023-05-02T05:38:37.367Z,94493.50
2023-05-02T05:41:11.229Z,94488.78
2023-05-02T05:43:42.004Z,94493.66
2023-05-02T05:46:09.158Z,94495.72
2023-05-02T05:48:37.450Z,94506.91
2023-05-02T05:51:07.668Z,94502.97
2023-05-02T05:53:34.438Z,94511.44
2023-05-02T05:56:12.922Z,94508.00
2023-05-02T05:58:44.832Z,94513.03
2023-05-02T06:01:13.434Z,94513.97
2023-05-02T06:03:40.571Z,94510.50
2023-05-02T06:06:07.371Z,94509.25
2023-05-02T06:08:34.228Z,94514.91
2023-05-02T06:11:00.794Z,94515.84
2023-05-02T06:13:27.367Z,94520.44
2023-05-02T06:15:55.056Z,94523.41
2023-05-02T06:18:21.736Z,94523.72
2023-05-02T06:20:48.258Z,94519.59
2023-05-02T06:23:14.793Z,94518.63
2023-05-02T06:25:41.371Z,94517.34
2023-05-02T06:28:09.527Z,94519.84
2023-05-02T06:30:36.289Z,94527.75
2023-05-02T06:33:06.038Z,94525.84
2023-05-02T06:35:32.658Z,94535.13
2023-05-02T06:37:59.251Z,94536.69
2023-05-02T06:40:25.962Z,94546.28
2023-05-02T06:42:52.467Z,94539.06
2023-05-02T06:45:19.000Z,94546.94
2023-05-02T06:47:45.907Z,94548.22
2023-05-02T06:50:12.590Z,94557.19
2023-05-02T06:52:39.098Z,94556.09
2023-05-02T06:55:05.911Z,94566.66
2023-05-02T06:57:32.482Z,94572.81
2023-05-02T06:59:59.159Z,94575.69
2023-05-02T07:02:25.824Z,94585.59
2023-05-02T07:04:52.402Z,94586.53
2023-05-02T07:07:20.587Z,94593.97
2023-05-02T07:09:47.195Z,94597.28
2023-05-02T07:12:13.723Z,94594.28
2023-05-02T07:14:40.398Z,94594.13
2023-05-02T07:17:07.052Z,94604.22
2023-05-02T07:19:33.856Z,94609.41
2023-05-02T07:22:00.382Z,94609.25
2023-05-02T07:24:26.955Z,94607.97
2023-05-02T07:26:53.487Z,94599.13
2023-05-02T07:29:20.059Z,94609.06
2023-05-02T07:31:47.052Z,94602.47
2023-05-02T07:34:13.792Z,94615.41
2023-05-02T07:36:40.329Z,94611.16
2023-05-02T07:39:06.896Z,94612.56
2023-05-02T07:41:33.448Z,94611.63
2023-05-02T07:44:00.172Z,94613.19
2023-05-02T07:46:26.872Z,94615.09
2023-05-02T07:48:54.257Z,94619.31
2023-05-02T07:51:21.680Z,94614.75
2023-05-02T07:53:54.464Z,94620.41
2023-05-02T07:56:21.364Z,94616.31
2023-05-02T07:58:47.971Z,94610.13
2023-05-02T08:01:14.533Z,94622.41
2023-05-02T08:03:42.490Z,94622.25
2023-05-02T08:06:10.025Z,94625.69
2023-05-02T08:08:37.065Z,94628.84
2023-05-02T08:11:03.769Z,94628.00
2023-05-02T08:13:30.439Z,94635.56
2023-05-02T08:15:58.349Z,94632.84
2023-05-02T08:18:25.494Z,94637.69
2023-05-02T08:20:53.010Z,94639.44
2023-05-02T08:23:19.581Z,94637.22
2023-05-02T08:25:46.221Z,94634.84
2023-05-02T08:28:13.225Z,94638.78
2023-05-02T08:30:39.851Z,94644.88
2023-05-02T08:33:06.501Z,94644.66
2023-05-02T08:35:33.082Z,94643.81
2023-05-02T08:37:59.615Z,94642.19
2023-05-02T08:40:38.229Z,94643.72
2023-05-02T08:43:08.472Z,94647.00
2023-05-02T08:45:38.423Z,94649.13
2023-05-02T08:48:10.485Z,94652.00
2023-05-02T08:50:38.516Z,94657.06
2023-05-02T08:53:06.947Z,94658.56
2023-05-02T08:55:34.238Z,94647.03
2023-05-02T08:58:01.456Z,94664.25
2023-05-02T09:00:28.729Z,94667.63
2023-05-02T09:03:04.683Z,94673.84
2023-05-02T09:05:32.953Z,94671.03
2023-05-02T09:07:59.608Z,94672.34
2023-05-02T09:10:28.431Z,94675.63
2023-05-02T09:12:54.985Z,94677.63
2023-05-02T09:15:21.609Z,94675.63
2023-05-02T09:17:48.390Z,94678.31
2023-05-02T09:20:16.126Z,94676.94
2023-05-02T09:22:52.474Z,94673.47
2023-05-02T09:25:22.560Z,94680.59
2023-05-02T09:27:56.411Z,94679.47
2023-05-02T09:30:23.904Z,94685.69
2023-05-02T09:32:51.448Z,94686.97
2023-05-02T09:35:23.876Z,94686.84
2023-05-02T09:37:57.359Z,94690.28
2023-05-02T09:40:24.487Z,94693.63
2023-05-02T09:42:51.423Z,94693.22
2023-05-02T09:45:22.125Z,94694.44
2023-05-02T09:47:49.206Z,94685.16
2023-05-02T09:50:35.134Z,94689.41
2023-05-02T09:53:02.786Z,94686.38
2023-05-02T09:55:29.317Z,94686.28
2023-05-02T09:57:56.020Z,94687.63
2023-05-02T10:00:22.652Z,94691.44
2023-05-02T10:02:51.552Z,94688.75
2023-05-02T10:05:20.063Z,94691.81
2023-05-02T10:07:46.968Z,94693.84
2023-05-02T10:10:17.244Z,94693.44
2023-05-02T10:12:43.963Z,94691.50
2023-05-02T10:15:13.058Z,94697.00
2023-05-02T10:17:42.362Z,94691.66
2023-05-02T10:20:10.491Z,94692.72
2023-05-02T10:22:37.393Z,94690.78
2023-05-02T10:25:04.546Z,94689.22
2023-05-02T10:27:32.201Z,94693.25
2023-05-02T10:29:59.517Z,94689.47
2023-05-02T10:32:29.672Z,94687.66
2023-05-02T10:35:03.265Z,94686.47
2023-05-02T10:37:30.303Z,94682.91
2023-05-02T10:39:56.885Z,94684.88
2023-05-02T10:42:23.768Z,94679.59
2023-05-02T10:44:51.196Z,94690.34
2023-05-02T10:47:21.919Z,94685.72
2023-05-02T10:49:59.698Z,94686.75
2023-05-02T10:52:27.775Z,94679.75
2023-05-02T10:55:13.479Z,94680.66
2023-05-02T10:58:00.922Z,94677.88
2023-05-02T11:00:32.464Z,94686.25
2023-05-02T11:02:59.439Z,94684.16
2023-05-02T11:05:26.876Z,94680.91
2023-05-02T11:08:13.665Z,94681.44
2023-05-02T11:10:40.434Z,94677.47
2023-05-02T11:13:06.973Z,94669.84
2023-05-02T11:15:33.510Z,94668.84
2023-05-02T11:18:01.355Z,94672.88
2023-05-02T11:20:28.551Z,94669.75
2023-05-02T11:22:55.894Z,94671.88
2023-05-02T11:25:30.830Z,94683.09
2023-05-02T11:27:57.971Z,94685.44
2023-05-02T11:30:44.144Z,94679.44
2023-05-02T11:33:11.994Z,94681.06
2023-05-02T11:35:42.138Z,94678.13
2023-05-02T11:38:12.233Z,94674.94
2023-05-02T11:40:38.769Z,94668.75
2023-05-02T11:43:15.446Z,94675.63
2023-05-02T11:45:44.672Z,94674.19
2023-05-02T11:48:13.410Z,94676.31
2023-05-02T11:50:48.608Z,94673.88
2023-05-02T11:53:17.582Z,94675.25
2023-05-02T11:55:45.123Z,94676.75
2023-05-02T11:58:18.948Z,94675.97
2023-05-02T12:00:48.526Z,94671.13
2023-05-02T12:03:28.880Z,94671.69
2023-05-02T12:05:56.084Z,94668.66
2023-05-02T12:08:23.468Z,94670.88
2023-05-02T12:10:51.899Z,94661.88
2023-05-02T12:13:19.363Z,94669.63
2023-05-02T12:15:46.208Z,94675.56
2023-05-02T12:18:13.177Z,94673.31
2023-05-02T12:20:40.117Z,94677.16
2023-05-02T12:23:13.069Z,94674.25
2023-05-02T12:25:43.000Z,94677.31
2023-05-02T12:28:10.412Z,94669.03
2023-05-02T12:30:41.880Z,94667.94
2023-05-02T12:33:08.660Z,94679.25
2023-05-02T12:35:35.582Z,94676.81
2023-05-02T12:38:12.381Z,94679.38
2023-05-02T12:40:40.067Z,94683.09
2023-05-02T12:43:10.603Z,94676.28
2023-05-02T12:45:37.431Z,94697.09
2023-05-02T12:48:19.478Z,94702.28
2023-05-02T12:50:46.027Z,94699.16
2023-05-02T12:53:12.637Z,94706.13
2023-05-02T12:55:39.234Z,94716.84
2023-05-02T12:58:06.991Z,94714.22
2023-05-02T13:00:35.224Z,94701.94
2023-05-02T13:03:02.217Z,94708.16
2023-05-02T13:05:28.810Z,94703.53
2023-05-02T13:07:59.282Z,94698.13
2023-05-02T13:10:26.264Z,94699.44
2023-05-02T13:12:53.079Z,94690.00
2023-05-02T13:15:19.879Z,94694.69
2023-05-02T13:17:46.667Z,94698.22
2023-05-02T13:20:13.360Z,94689.38
2023-05-02T13:22:40.130Z,94683.97
2023-05-02T13:25:07.106Z,94692.94
2023-05-02T13:27:34.361Z,94695.16
2023-05-02T13:30:06.771Z,94694.03
2023-05-02T13:32:35.375Z,94690.53
2023-05-02T13:35:01.999Z,94690.81
2023-05-02T13:37:28.600Z,94694.97
2023-05-02T13:39:55.136Z,94698.53
2023-05-02T13:42:21.837Z,94691.69
2023-05-02T13:44:48.410Z,94681.03
2023-05-02T13:47:14.941Z,94688.34
2023-05-02T13:49:41.487Z,94685.13
2023-05-02T13:52:08.233Z,94683.78
2023-05-02T13:54:34.777Z,94681.91
2023-05-02T13:57:01.310Z,94674.84
2023-05-02T13:59:27.833Z,94681.06
2023-05-02T14:01:54.411Z,94683.34
2023-05-02T14:04:21.664Z,94686.53
2023-05-02T14:06:49.874Z,94686.41
2023-05-02T14:09:17.063Z,94685.38
2023-05-02T14:11:44.446Z,94695.25
2023-05-02T14:14:12.562Z,94696.53
2023-05-02T14:16:39.382Z,94692.38
2023-05-02T14:19:06.018Z,94700.66
2023-05-02T14:21:32.559Z,94705.91
2023-05-02T14:24:00.228Z,94703.09
2023-05-02T14:26:26.889Z,94713.34
2023-05-02T14:28:53.412Z,94717.38
2023-05-02T14:31:20.035Z,94719.88
2023-05-02T14:33:46.615Z,94719.38
2023-05-02T14:36:13.164Z,94717.63
2023-05-02T14:38:39.802Z,94718.72
2023-05-02T14:41:07.026Z,94716.94
2023-05-02T14:43:33.597Z,94720.13
2023-05-02T14:46:00.229Z,94717.34
2023-05-02T14:48:26.820Z,94712.84
2023-05-02T14:50:53.850Z,94726.88
2023-05-02T14:53:20.917Z,94724.28
2023-05-02T14:55:47.545Z,94719.84
2023-05-02T14:58:20.553Z,94722.91
2023-05-02T15:00:47.546Z,94724.97
2023-05-02T15:03:14.346Z,94730.13
2023-05-02T15:05:41.853Z,94718.91
2023-05-02T15:08:08.463Z,94721.44
2023-05-02T15:10:38.520Z,94717.50
2023-05-02T15:13:06.038Z,94724.41
2023-05-02T15:15:32.644Z,94728.63
2023-05-02T15:17:59.278Z,94726.78
2023-05-02T15:20:26.240Z,94730.63
2023-05-02T15:22:52.798Z,94724.50
2023-05-02T15:25:19.362Z,94723.56
2023-05-02T15:27:46.073Z,94723.44
2023-05-02T15:30:12.768Z,94728.13
2023-05-02T15:32:39.400Z,94723.97
2023-05-02T15:35:07.872Z,94721.41
2023-05-02T15:37:34.826Z,94726.03
2023-05-02T15:40:04.151Z,94726.19
2023-05-02T15:42:31.107Z,94724.06
2023-05-02T15:44:57.936Z,94721.84
2023-05-02T15:47:25.100Z,94726.81
2023-05-02T15:49:53.961Z,94722.94
2023-05-02T15:52:21.227Z,94734.66
2023-05-02T15:54:47.774Z,94729.06
2023-05-02T15:57:14.324Z,94729.09
2023-05-02T15:59:40.925Z,94728.47
2023-05-02T16:02:07.711Z,94730.59
2023-05-02T16:04:35.120Z,94733.16
2023-05-02T16:07:02.046Z,94729.00
2023-05-02T16:09:31.111Z,94725.28
2023-05-02T16:11:58.023Z,94733.41
2023-05-02T16:14:26.185Z,94729.81
2023-05-02T16:16:52.827Z,94735.06
2023-05-02T16:19:19.448Z,94734.19
2023-05-02T16:21:46.413Z,94738.81
2023-05-02T16:24:13.021Z,94734.72
2023-05-02T16:26:39.651Z,94740.66
2023-05-02T16:29:06.193Z,94746.59
2023-05-02T16:31:32.851Z,94740.41
2023-05-02T16:33:59.486Z,94744.06
2023-05-02T16:36:26.462Z,94733.94
2023-05-02T16:38:53.045Z,94738.81
2023-05-02T16:41:19.598Z,94743.63
2023-05-02T16:43:46.902Z,94741.13
2023-05-02T16:46:13.469Z,94740.00
2023-05-02T16:48:40.092Z,94747.38
2023-05-02T16:51:06.978Z,94741.97
2023-05-02T16:53:33.545Z,94733.25
2023-05-02T16:56:00.190Z,94746.88
2023-05-02T16:58:29.945Z,94744.63
2023-05-02T17:00:56.904Z,94753.53
2023-05-02T17:03:23.508Z,94752.97
2023-05-02T17:05:50.167Z,94753.03
2023-05-02T17:08:17.087Z,94759.16
2023-05-02T17:10:48.280Z,94760.97
2023-05-02T17:13:14.898Z,94768.28
2023-05-02T17:15:41.508Z,94766.88
2023-05-02T17:18:08.193Z,94771.47
2023-05-02T17:20:36.008Z,94780.53
2023-05-02T17:23:02.977Z,94776.38
2023-05-02T17:25:30.468Z,94777.41
2023-05-02T17:27:57.054Z,94782.34
2023-05-02T17:30:25.227Z,94783.47
2023-05-02T17:32:51.906Z,94782.81
2023-05-02T17:35:18.469Z,94783.94
2023-05-02T17:37:45.111Z,94787.78
2023-05-02T17:40:12.395Z,94793.47
2023-05-02T17:42:39.149Z,94787.81
2023-05-02T17:45:07.416Z,94792.47
2023-05-02T17:47:33.986Z,94798.44
2023-05-02T17:50:03.755Z,94808.13
2023-05-02T17:52:31.341Z,94804.00
2023-05-02T17:54:57.951Z,94813.59
2023-05-02T17:57:24.509Z,94815.59
2023-05-02T17:59:53.720Z,94818.75
2023-05-02T18:02:21.854Z,94811.91
2023-05-02T18:04:49.569Z,94819.09
2023-05-02T18:07:17.913Z,94817.94
2023-05-02T18:09:44.528Z,94818.28
2023-05-02T18:12:11.317Z,94824.16
2023-05-02T18:14:37.965Z,94822.00
2023-05-02T18:17:04.520Z,94820.97
2023-05-02T18:19:31.104Z,94821.06
2023-05-02T18:21:58.603Z,94822.03
2023-05-02T18:24:25.219Z,94831.13
2023-05-02T18:26:52.600Z,94825.94
2023-05-02T18:29:19.131Z,94839.19
2023-05-02T18:31:52.236Z,94842.88
2023-05-02T18:34:19.268Z,94837.09
2023-05-02T18:36:45.898Z,94842.03
2023-05-02T18:39:12.602Z,94836.22
2023-05-02T18:41:39.421Z,94850.78
2023-05-02T18:44:10.646Z,94849.09
2023-05-02T18:46:37.386Z,94856.56
2023-05-02T18:49:04.326Z,94860.25
2023-05-02T18:51:31.037Z,94861.31
2023-05-02T18:53:57.538Z,94863.59
2023-05-02T18:56:25.432Z,94866.84
2023-05-02T18:58:56.568Z,94872.88
2023-05-02T19:01:23.750Z,94874.94
2023-05-02T19:03:52.306Z,94877.97
2023-05-02T19:06:19.337Z,94881.13
2023-05-02T19:08:46.688Z,94875.41
2023-05-02T19:11:13.649Z,94874.81
2023-05-02T19:13:40.283Z,94884.84
2023-05-02T19:16:13.675Z,94879.19
2023-05-02T19:18:40.728Z,94885.88
2023-05-02T19:21:07.912Z,94884.59
2023-05-02T19:23:35.581Z,94885.72
2023-05-02T19:26:02.117Z,94889.19
2023-05-02T19:28:28.648Z,94890.78
2023-05-02T19:30:55.174Z,94888.88
2023-05-02T19:33:21.709Z,94892.88
2023-05-02T19:35:48.507Z,94892.75
2023-05-02T19:38:15.072Z,94896.06
2023-05-02T19:40:41.608Z,94900.97
2023-05-02T19:43:08.217Z,94903.19
2023-05-02T19:45:35.237Z,94906.22
2023-05-02T19:48:01.855Z,94910.63
2023-05-02T19:50:28.523Z,94909.84
2023-05-02T19:52:55.064Z,94908.13
2023-05-02T19:55:21.752Z,94910.31
2023-05-02T19:57:48.887Z,94912.50
2023-05-02T20:00:15.662Z,94918.19
2023-05-02T20:02:42.285Z,94920.28
2023-05-02T20:05:09.139Z,94921.56
2023-05-02T20:07:36.116Z,94924.72
2023-05-02T20:10:02.974Z,94931.72
2023-05-02T20:12:29.855Z,94937.91
2023-05-02T20:14:56.371Z,94935.09
2023-05-02T20:17:23.117Z,94946.56
2023-05-02T20:19:49.666Z,94940.38
2023-05-02T20:22:16.190Z,94942.91
2023-05-02T20:24:43.837Z,94950.31
2023-05-02T20:27:10.428Z,94941.19
2023-05-02T20:29:37.004Z,94939.91
2023-05-02T20:32:03.715Z,94939.44
2023-05-02T20:34:30.320Z,94939.25
2023-05-02T20:36:56.879Z,94935.34
2023-05-02T20:39:24.000Z,94937.69
2023-05-02T20:41:50.610Z,94939.56
2023-05-02T20:44:22.499Z,94935.63
2023-05-02T20:46:49.161Z,94943.53
2023-05-02T20:49:15.726Z,94940.81
2023-05-02T20:51:42.259Z,94948.38
2023-05-02T20:54:08.802Z,94946.81
2023-05-02T20:56:35.477Z,94944.44
2023-05-02T20:59:02.035Z,94944.44
2023-05-02T21:01:28.606Z,94937.78
2023-05-02T21:03:57.200Z,94937.47
2023-05-02T21:06:24.317Z,94939.69
2023-05-02T21:08:51.296Z,94938.09
2023-05-02T21:11:17.825Z,94938.91
2023-05-02T21:13:44.449Z,94937.47
2023-05-02T21:16:18.040Z,94933.69
2023-05-02T21:18:45.067Z,94936.69
2023-05-02T21:21:11.633Z,94932.09
2023-05-02T21:23:38.274Z,94935.91
2023-05-02T21:26:04.887Z,94932.72
2023-05-02T21:28:31.467Z,94935.75
2023-05-02T21:30:58.007Z,94934.47
2023-05-02T21:33:24.659Z,94929.41
2023-05-02T21:35:58.304Z,94925.03
2023-05-02T21:38:25.775Z,94931.19
2023-05-02T21:40:52.630Z,94930.09
2023-05-02T21:43:19.362Z,94932.19
2023-05-02T21:45:46.597Z,94933.75
2023-05-02T21:48:13.906Z,94931.06
2023-05-02T21:50:41.616Z,94927.13
2023-05-02T21:53:08.796Z,94932.50
2023-05-02T21:55:39.799Z,94924.75
2023-05-02T21:58:07.833Z,94921.91
2023-05-02T22:00:36.438Z,94924.75
2023-05-02T22:03:07.587Z,94927.75
2023-05-02T22:05:35.923Z,94925.88
2023-05-02T22:08:03.040Z,94931.56
2023-05-02T22:10:29.932Z,94927.75
2023-05-02T22:12:56.648Z,94927.13
2023-05-02T22:15:23.221Z,94926.03
2023-05-02T22:17:50.619Z,94928.38
2023-05-02T22:20:17.323Z,94930.91
2023-05-02T22:22:43.930Z,94929.63
2023-05-02T22:25:10.531Z,94930.72
2023-05-02T22:27:37.325Z,94920.28
2023-05-02T22:30:04.420Z,94924.53
2023-05-02T22:32:31.397Z,94924.97
2023-05-02T22:34:58.205Z,94923.38
2023-05-02T22:37:24.962Z,94926.81
2023-05-02T22:39:51.580Z,94924.91
2023-05-02T22:42:18.562Z,94931.19
2023-05-02T22:47:17.903Z,94929.09
2023-05-02T22:49:45.730Z,94933.94
2023-05-02T22:52:14.167Z,94931.22
2023-05-02T22:54:40.779Z,94928.69
2023-05-02T22:57:07.364Z,94929.59
2023-05-02T22:59:33.904Z,94931.31
2023-05-02T23:02:00.607Z,94930.50
2023-05-02T23:04:27.208Z,94935.53
2023-05-02T23:06:54.309Z,94937.53
2023-05-02T23:09:21.327Z,94938.44
2023-05-02T23:11:47.982Z,94940.16
2023-05-02T23:14:15.212Z,94933.84
2023-05-02T23:16:41.892Z,94935.06
2023-05-02T23:19:08.574Z,94940.41
2023-05-02T23:21:35.110Z,94938.16
2023-05-02T23:24:01.925Z,94940.16
2023-05-02T23:26:28.462Z,94940.31
2023-05-02T23:28:55.013Z,94945.16
2023-05-02T23:31:21.657Z,94941.81
2023-05-02T23:33:48.377Z,94938.34
2023-05-02T23:36:15.256Z,94934.38
2023-05-02T23:38:41.978Z,94936.28
2023-05-02T23:41:08.638Z,94934.19
2023-05-02T23:43:35.603Z,94939.69
2023-05-02T23:46:02.536Z,94936.53
2023-05-02T23:48:29.107Z,94930.50
2023-05-02T23:50:55.632Z,94930.28
2023-05-02T23:53:22.198Z,94938.31
2023-05-02T23:55:48.720Z,94932.00
2023-05-02T23:58:15.378Z,94932.59
